sensor_id;sensor_type;location;lat;lon;timestamp;P1;durP1;ratioP1;P2;durP2;ratioP2
70545;SDS011;58098;51.680;5.134;2023-07-29T00:00:40;20.75;;;5.93;;
70545;SDS011;58098;51.680;5.134;2023-07-29T00:03:05;63.60;;;7.00;;
70545;SDS011;58098;51.680;5.134;2023-07-29T00:05:31;28.17;;;5.67;;
70545;SDS011;58098;51.680;5.134;2023-07-29T00:07:56;16.83;;;6.13;;
70545;SDS011;58098;51.680;5.134;2023-07-29T00:10:21;11.57;;;5.67;;
70545;SDS011;58098;51.680;5.134;2023-07-29T00:12:47;11.23;;;5.80;;
70545;SDS011;58098;51.680;5.134;2023-07-29T00:15:12;8.30;;;5.93;;
70545;SDS011;58098;51.680;5.134;2023-07-29T00:17:38;10.27;;;6.40;;
70545;SDS011;58098;51.680;5.134;2023-07-29T00:20:04;9.80;;;6.05;;
70545;SDS011;58098;51.680;5.134;2023-07-29T00:22:30;11.35;;;5.88;;
70545;SDS011;58098;51.680;5.134;2023-07-29T00:24:56;8.53;;;5.83;;
70545;SDS011;58098;51.680;5.134;2023-07-29T00:27:22;11.55;;;6.57;;
70545;SDS011;58098;51.680;5.134;2023-07-29T00:29:48;13.23;;;5.97;;
70545;SDS011;58098;51.680;5.134;2023-07-29T00:32:13;9.57;;;6.30;;
70545;SDS011;58098;51.680;5.134;2023-07-29T00:34:38;10.00;;;5.93;;
70545;SDS011;58098;51.680;5.134;2023-07-29T00:37:04;11.10;;;6.80;;
70545;SDS011;58098;51.680;5.134;2023-07-29T00:39:31;9.57;;;6.30;;
70545;SDS011;58098;51.680;5.134;2023-07-29T00:41:56;13.82;;;6.65;;
70545;SDS011;58098;51.680;5.134;2023-07-29T00:44:22;10.33;;;6.30;;
70545;SDS011;58098;51.680;5.134;2023-07-29T00:46:47;8.87;;;6.37;;
70545;SDS011;58098;51.680;5.134;2023-07-29T00:49:15;11.70;;;7.20;;
70545;SDS011;58098;51.680;5.134;2023-07-29T00:51:40;8.27;;;6.43;;
70545;SDS011;58098;51.680;5.134;2023-07-29T00:54:05;9.70;;;6.77;;
70545;SDS011;58098;51.680;5.134;2023-07-29T00:56:31;11.87;;;6.43;;
70545;SDS011;58098;51.680;5.134;2023-07-29T00:58:56;8.87;;;6.60;;
70545;SDS011;58098;51.680;5.134;2023-07-29T01:01:26;12.70;;;6.93;;
70545;SDS011;58098;51.680;5.134;2023-07-29T01:03:52;11.00;;;6.70;;
70545;SDS011;58098;51.680;5.134;2023-07-29T01:08:55;12.10;;;6.13;;
70545;SDS011;58098;51.680;5.134;2023-07-29T01:14:21;8.13;;;5.22;;
70545;SDS011;58098;51.680;5.134;2023-07-29T01:16:53;8.77;;;4.55;;
70545;SDS011;58098;51.680;5.134;2023-07-29T01:19:45;9.75;;;5.05;;
70545;SDS011;58098;51.680;5.134;2023-07-29T01:22:31;6.43;;;3.92;;
70545;SDS011;58098;51.680;5.134;2023-07-29T01:24:58;5.20;;;3.90;;
70545;SDS011;58098;51.680;5.134;2023-07-29T01:27:24;7.90;;;3.80;;
70545;SDS011;58098;51.680;5.134;2023-07-29T01:29:50;4.82;;;3.45;;
70545;SDS011;58098;51.680;5.134;2023-07-29T01:37:51;5.05;;;3.70;;
70545;SDS011;58098;51.680;5.134;2023-07-29T01:40:21;7.30;;;4.00;;
70545;SDS011;58098;51.680;5.134;2023-07-29T01:42:48;9.35;;;4.40;;
70545;SDS011;58098;51.680;5.134;2023-07-29T01:45:14;8.27;;;4.07;;
70545;SDS011;58098;51.680;5.134;2023-07-29T01:47:40;4.95;;;3.72;;
70545;SDS011;58098;51.680;5.134;2023-07-29T01:50:06;6.30;;;4.05;;
70545;SDS011;58098;51.680;5.134;2023-07-29T01:52:32;8.27;;;4.30;;
70545;SDS011;58098;51.680;5.134;2023-07-29T01:54:58;7.60;;;4.53;;
70545;SDS011;58098;51.680;5.134;2023-07-29T01:57:23;8.30;;;4.80;;
70545;SDS011;58098;51.680;5.134;2023-07-29T01:59:48;9.13;;;4.03;;
70545;SDS011;58098;51.680;5.134;2023-07-29T02:02:14;9.37;;;4.63;;
70545;SDS011;58098;51.680;5.134;2023-07-29T02:04:39;8.83;;;4.00;;
70545;SDS011;58098;51.680;5.134;2023-07-29T02:07:04;7.43;;;3.77;;
70545;SDS011;58098;51.680;5.134;2023-07-29T02:09:30;6.10;;;4.13;;
70545;SDS011;58098;51.680;5.134;2023-07-29T02:11:56;6.45;;;3.72;;
70545;SDS011;58098;51.680;5.134;2023-07-29T02:14:22;7.43;;;3.65;;
70545;SDS011;58098;51.680;5.134;2023-07-29T02:16:48;7.23;;;3.87;;
70545;SDS011;58098;51.680;5.134;2023-07-29T02:19:14;4.65;;;3.10;;
70545;SDS011;58098;51.680;5.134;2023-07-29T02:21:39;7.63;;;4.03;;
70545;SDS011;58098;51.680;5.134;2023-07-29T02:24:05;6.33;;;3.80;;
70545;SDS011;58098;51.680;5.134;2023-07-29T02:26:30;5.20;;;3.87;;
70545;SDS011;58098;51.680;5.134;2023-07-29T02:28:55;7.17;;;4.00;;
70545;SDS011;58098;51.680;5.134;2023-07-29T02:31:22;5.93;;;3.60;;
70545;SDS011;58098;51.680;5.134;2023-07-29T02:33:48;8.77;;;3.50;;
70545;SDS011;58098;51.680;5.134;2023-07-29T02:36:14;4.30;;;3.20;;
70545;SDS011;58098;51.680;5.134;2023-07-29T02:38:40;5.85;;;3.40;;
70545;SDS011;58098;51.680;5.134;2023-07-29T02:41:06;6.03;;;3.70;;
70545;SDS011;58098;51.680;5.134;2023-07-29T02:43:33;5.88;;;3.38;;
70545;SDS011;58098;51.680;5.134;2023-07-29T02:45:59;4.73;;;3.30;;
70545;SDS011;58098;51.680;5.134;2023-07-29T02:48:24;4.60;;;3.33;;
70545;SDS011;58098;51.680;5.134;2023-07-29T02:50:50;6.30;;;3.42;;
70545;SDS011;58098;51.680;5.134;2023-07-29T02:53:15;4.97;;;3.30;;
70545;SDS011;58098;51.680;5.134;2023-07-29T02:55:41;6.50;;;3.00;;
70545;SDS011;58098;51.680;5.134;2023-07-29T02:58:06;6.17;;;3.43;;
70545;SDS011;58098;51.680;5.134;2023-07-29T03:00:32;5.60;;;3.15;;
70545;SDS011;58098;51.680;5.134;2023-07-29T03:02:58;7.30;;;3.50;;
70545;SDS011;58098;51.680;5.134;2023-07-29T03:05:24;4.40;;;3.33;;
70545;SDS011;58098;51.680;5.134;2023-07-29T03:07:49;4.88;;;2.95;;
70545;SDS011;58098;51.680;5.134;2023-07-29T03:10:14;5.17;;;3.17;;
70545;SDS011;58098;51.680;5.134;2023-07-29T03:12:40;4.80;;;3.17;;
70545;SDS011;58098;51.680;5.134;2023-07-29T03:15:06;4.15;;;2.80;;
70545;SDS011;58098;51.680;5.134;2023-07-29T03:17:32;5.03;;;2.77;;
70545;SDS011;58098;51.680;5.134;2023-07-29T03:19:57;3.58;;;2.63;;
70545;SDS011;58098;51.680;5.134;2023-07-29T03:22:22;4.03;;;3.10;;
70545;SDS011;58098;51.680;5.134;2023-07-29T03:24:48;5.43;;;2.80;;
70545;SDS011;58098;51.680;5.134;2023-07-29T03:27:13;5.30;;;2.70;;
70545;SDS011;58098;51.680;5.134;2023-07-29T03:29:40;4.45;;;2.88;;
70545;SDS011;58098;51.680;5.134;2023-07-29T03:32:06;4.85;;;2.88;;
70545;SDS011;58098;51.680;5.134;2023-07-29T03:34:42;3.40;;;2.80;;
70545;SDS011;58098;51.680;5.134;2023-07-29T03:37:07;6.88;;;2.92;;
70545;SDS011;58098;51.680;5.134;2023-07-29T03:39:33;3.40;;;3.10;;
70545;SDS011;58098;51.680;5.134;2023-07-29T03:41:59;6.25;;;3.17;;
70545;SDS011;58098;51.680;5.134;2023-07-29T03:44:24;4.17;;;2.60;;
70545;SDS011;58098;51.680;5.134;2023-07-29T03:46:50;3.55;;;2.88;;
70545;SDS011;58098;51.680;5.134;2023-07-29T03:49:16;4.50;;;2.93;;
70545;SDS011;58098;51.680;5.134;2023-07-29T03:51:41;4.53;;;3.10;;
70545;SDS011;58098;51.680;5.134;2023-07-29T03:54:06;8.17;;;3.53;;
70545;SDS011;58098;51.680;5.134;2023-07-29T03:56:32;7.23;;;3.53;;
70545;SDS011;58098;51.680;5.134;2023-07-29T03:59:03;6.87;;;3.97;;
70545;SDS011;58098;51.680;5.134;2023-07-29T04:01:30;6.30;;;3.55;;
70545;SDS011;58098;51.680;5.134;2023-07-29T04:03:56;7.40;;;3.47;;
70545;SDS011;58098;51.680;5.134;2023-07-29T04:06:21;6.07;;;3.97;;
70545;SDS011;58098;51.680;5.134;2023-07-29T04:08:47;5.80;;;3.73;;
70545;SDS011;58098;51.680;5.134;2023-07-29T04:11:13;7.05;;;3.88;;
70545;SDS011;58098;51.680;5.134;2023-07-29T04:13:39;7.97;;;4.40;;
70545;SDS011;58098;51.680;5.134;2023-07-29T04:16:04;6.57;;;4.07;;
70545;SDS011;58098;51.680;5.134;2023-07-29T04:18:30;6.47;;;4.30;;
70545;SDS011;58098;51.680;5.134;2023-07-29T04:20:55;4.43;;;3.23;;
70545;SDS011;58098;51.680;5.134;2023-07-29T04:23:20;8.30;;;4.63;;
70545;SDS011;58098;51.680;5.134;2023-07-29T04:25:46;6.45;;;4.53;;
70545;SDS011;58098;51.680;5.134;2023-07-29T04:28:11;9.73;;;4.53;;
70545;SDS011;58098;51.680;5.134;2023-07-29T04:30:37;11.13;;;5.10;;
70545;SDS011;58098;51.680;5.134;2023-07-29T04:33:02;8.10;;;5.17;;
70545;SDS011;58098;51.680;5.134;2023-07-29T04:35:28;8.75;;;4.68;;
70545;SDS011;58098;51.680;5.134;2023-07-29T04:37:54;9.80;;;5.00;;
70545;SDS011;58098;51.680;5.134;2023-07-29T04:40:19;10.98;;;5.15;;
70545;SDS011;58098;51.680;5.134;2023-07-29T04:42:44;9.07;;;5.17;;
70545;SDS011;58098;51.680;5.134;2023-07-29T04:45:10;9.60;;;5.10;;
70545;SDS011;58098;51.680;5.134;2023-07-29T04:47:35;9.67;;;5.53;;
70545;SDS011;58098;51.680;5.134;2023-07-29T04:50:01;9.20;;;4.83;;
70545;SDS011;58098;51.680;5.134;2023-07-29T04:52:26;7.72;;;5.13;;
70545;SDS011;58098;51.680;5.134;2023-07-29T04:54:51;9.33;;;4.63;;
70545;SDS011;58098;51.680;5.134;2023-07-29T04:57:17;9.67;;;4.57;;
70545;SDS011;58098;51.680;5.134;2023-07-29T04:59:42;7.57;;;4.93;;
70545;SDS011;58098;51.680;5.134;2023-07-29T05:02:07;8.37;;;5.60;;
70545;SDS011;58098;51.680;5.134;2023-07-29T05:04:33;9.93;;;5.20;;
70545;SDS011;58098;51.680;5.134;2023-07-29T05:06:58;11.63;;;5.33;;
70545;SDS011;58098;51.680;5.134;2023-07-29T05:09:23;8.10;;;4.97;;
70545;SDS011;58098;51.680;5.134;2023-07-29T05:11:49;9.20;;;5.60;;
70545;SDS011;58098;51.680;5.134;2023-07-29T05:14:15;9.43;;;5.47;;
70545;SDS011;58098;51.680;5.134;2023-07-29T05:16:42;10.95;;;5.07;;
70545;SDS011;58098;51.680;5.134;2023-07-29T05:19:07;7.32;;;5.38;;
70545;SDS011;58098;51.680;5.134;2023-07-29T05:21:33;9.37;;;5.40;;
70545;SDS011;58098;51.680;5.134;2023-07-29T05:23:58;10.30;;;4.33;;
70545;SDS011;58098;51.680;5.134;2023-07-29T05:26:24;8.17;;;5.00;;
70545;SDS011;58098;51.680;5.134;2023-07-29T05:28:49;6.53;;;4.55;;
70545;SDS011;58098;51.680;5.134;2023-07-29T05:31:14;7.80;;;5.00;;
70545;SDS011;58098;51.680;5.134;2023-07-29T05:33:40;9.13;;;4.90;;
70545;SDS011;58098;51.680;5.134;2023-07-29T05:36:05;8.23;;;5.17;;
70545;SDS011;58098;51.680;5.134;2023-07-29T05:38:32;7.38;;;4.55;;
70545;SDS011;58098;51.680;5.134;2023-07-29T05:40:57;6.10;;;3.93;;
70545;SDS011;58098;51.680;5.134;2023-07-29T05:43:23;7.73;;;4.83;;
70545;SDS011;58098;51.680;5.134;2023-07-29T05:45:49;10.68;;;5.25;;
70545;SDS011;58098;51.680;5.134;2023-07-29T05:48:15;5.18;;;3.55;;
70545;SDS011;58098;51.680;5.134;2023-07-29T05:50:40;7.13;;;4.20;;
70545;SDS011;58098;51.680;5.134;2023-07-29T05:53:06;6.57;;;4.57;;
70545;SDS011;58098;51.680;5.134;2023-07-29T05:55:31;8.73;;;4.97;;
70545;SDS011;58098;51.680;5.134;2023-07-29T05:57:56;7.30;;;4.63;;
70545;SDS011;58098;51.680;5.134;2023-07-29T06:00:22;7.90;;;4.60;;
70545;SDS011;58098;51.680;5.134;2023-07-29T06:02:48;6.67;;;4.97;;
70545;SDS011;58098;51.680;5.134;2023-07-29T06:05:13;7.53;;;4.60;;
70545;SDS011;58098;51.680;5.134;2023-07-29T06:07:39;8.07;;;5.15;;
70545;SDS011;58098;51.680;5.134;2023-07-29T06:10:09;7.83;;;5.33;;
70545;SDS011;58098;51.680;5.134;2023-07-29T06:12:36;7.88;;;4.63;;
70545;SDS011;58098;51.680;5.134;2023-07-29T06:15:02;7.63;;;5.10;;
70545;SDS011;58098;51.680;5.134;2023-07-29T06:17:29;7.60;;;4.90;;
70545;SDS011;58098;51.680;5.134;2023-07-29T06:19:55;7.67;;;5.20;;
70545;SDS011;58098;51.680;5.134;2023-07-29T06:22:20;7.13;;;4.60;;
70545;SDS011;58098;51.680;5.134;2023-07-29T06:24:45;9.20;;;4.70;;
70545;SDS011;58098;51.680;5.134;2023-07-29T06:27:11;7.10;;;4.90;;
70545;SDS011;58098;51.680;5.134;2023-07-29T06:29:36;6.47;;;4.20;;
70545;SDS011;58098;51.680;5.134;2023-07-29T06:32:01;9.93;;;4.87;;
70545;SDS011;58098;51.680;5.134;2023-07-29T06:34:27;11.60;;;4.77;;
70545;SDS011;58098;51.680;5.134;2023-07-29T06:36:52;7.57;;;4.33;;
70545;SDS011;58098;51.680;5.134;2023-07-29T06:39:17;7.80;;;4.33;;
70545;SDS011;58098;51.680;5.134;2023-07-29T06:41:43;8.10;;;4.20;;
70545;SDS011;58098;51.680;5.134;2023-07-29T06:44:08;7.27;;;4.50;;
70545;SDS011;58098;51.680;5.134;2023-07-29T06:46:33;7.67;;;4.10;;
70545;SDS011;58098;51.680;5.134;2023-07-29T06:48:59;6.87;;;4.20;;
70545;SDS011;58098;51.680;5.134;2023-07-29T06:51:24;7.43;;;4.10;;
70545;SDS011;58098;51.680;5.134;2023-07-29T06:53:49;11.33;;;4.40;;
70545;SDS011;58098;51.680;5.134;2023-07-29T06:56:15;8.07;;;4.20;;
70545;SDS011;58098;51.680;5.134;2023-07-29T06:58:41;8.17;;;4.23;;
70545;SDS011;58098;51.680;5.134;2023-07-29T07:01:06;6.47;;;3.80;;
70545;SDS011;58098;51.680;5.134;2023-07-29T07:03:32;5.63;;;3.90;;
70545;SDS011;58098;51.680;5.134;2023-07-29T07:05:57;4.67;;;3.40;;
70545;SDS011;58098;51.680;5.134;2023-07-29T07:08:22;9.57;;;4.03;;
70545;SDS011;58098;51.680;5.134;2023-07-29T07:10:48;8.47;;;4.20;;
70545;SDS011;58098;51.680;5.134;2023-07-29T07:13:13;7.40;;;3.70;;
70545;SDS011;58098;51.680;5.134;2023-07-29T07:15:38;5.10;;;3.47;;
70545;SDS011;58098;51.680;5.134;2023-07-29T07:18:04;10.10;;;4.10;;
70545;SDS011;58098;51.680;5.134;2023-07-29T07:20:29;5.50;;;3.60;;
70545;SDS011;58098;51.680;5.134;2023-07-29T07:22:54;6.90;;;4.13;;
70545;SDS011;58098;51.680;5.134;2023-07-29T07:25:20;6.70;;;3.95;;
70545;SDS011;58098;51.680;5.134;2023-07-29T07:27:46;7.13;;;3.27;;
70545;SDS011;58098;51.680;5.134;2023-07-29T07:30:11;5.10;;;3.40;;
70545;SDS011;58098;51.680;5.134;2023-07-29T07:32:36;4.70;;;3.30;;
70545;SDS011;58098;51.680;5.134;2023-07-29T07:35:02;6.00;;;3.50;;
70545;SDS011;58098;51.680;5.134;2023-07-29T07:37:29;7.95;;;3.25;;
70545;SDS011;58098;51.680;5.134;2023-07-29T07:39:54;4.70;;;3.23;;
70545;SDS011;58098;51.680;5.134;2023-07-29T07:42:19;7.73;;;3.13;;
70545;SDS011;58098;51.680;5.134;2023-07-29T07:44:44;3.75;;;2.95;;
70545;SDS011;58098;51.680;5.134;2023-07-29T07:47:10;4.60;;;2.87;;
70545;SDS011;58098;51.680;5.134;2023-07-29T07:49:35;6.03;;;2.83;;
70545;SDS011;58098;51.680;5.134;2023-07-29T07:52:00;11.80;;;8.20;;
70545;SDS011;58098;51.680;5.134;2023-07-29T07:54:26;5.47;;;3.30;;
70545;SDS011;58098;51.680;5.134;2023-07-29T07:56:51;4.87;;;3.23;;
70545;SDS011;58098;51.680;5.134;2023-07-29T07:59:16;5.87;;;3.43;;
70545;SDS011;58098;51.680;5.134;2023-07-29T08:01:42;5.77;;;3.40;;
70545;SDS011;58098;51.680;5.134;2023-07-29T08:04:07;5.23;;;3.70;;
70545;SDS011;58098;51.680;5.134;2023-07-29T08:06:32;8.20;;;3.03;;
70545;SDS011;58098;51.680;5.134;2023-07-29T08:08:58;4.40;;;2.73;;
70545;SDS011;58098;51.680;5.134;2023-07-29T08:11:24;4.27;;;3.20;;
70545;SDS011;58098;51.680;5.134;2023-07-29T08:13:49;3.73;;;3.00;;
70545;SDS011;58098;51.680;5.134;2023-07-29T08:16:15;6.22;;;3.38;;
70545;SDS011;58098;51.680;5.134;2023-07-29T08:18:40;5.43;;;3.10;;
70545;SDS011;58098;51.680;5.134;2023-07-29T08:21:06;4.57;;;3.10;;
70545;SDS011;58098;51.680;5.134;2023-07-29T08:23:33;4.90;;;2.90;;
70545;SDS011;58098;51.680;5.134;2023-07-29T08:26:00;4.65;;;2.50;;
70545;SDS011;58098;51.680;5.134;2023-07-29T08:28:31;3.47;;;2.55;;
70545;SDS011;58098;51.680;5.134;2023-07-29T08:30:58;4.83;;;2.60;;
70545;SDS011;58098;51.680;5.134;2023-07-29T08:33:23;4.30;;;2.67;;
70545;SDS011;58098;51.680;5.134;2023-07-29T08:35:49;5.33;;;2.67;;
70545;SDS011;58098;51.680;5.134;2023-07-29T08:38:14;5.53;;;3.08;;
70545;SDS011;58098;51.680;5.134;2023-07-29T08:40:42;4.67;;;3.20;;
70545;SDS011;58098;51.680;5.134;2023-07-29T08:43:10;4.47;;;2.80;;
70545;SDS011;58098;51.680;5.134;2023-07-29T08:45:39;4.47;;;2.72;;
70545;SDS011;58098;51.680;5.134;2023-07-29T08:48:07;3.67;;;2.80;;
70545;SDS011;58098;51.680;5.134;2023-07-29T08:50:35;5.95;;;3.30;;
70545;SDS011;58098;51.680;5.134;2023-07-29T08:53:05;4.22;;;2.50;;
70545;SDS011;58098;51.680;5.134;2023-07-29T08:55:31;3.47;;;2.55;;
70545;SDS011;58098;51.680;5.134;2023-07-29T08:57:59;3.78;;;2.45;;
70545;SDS011;58098;51.680;5.134;2023-07-29T09:00:25;3.10;;;2.50;;
70545;SDS011;58098;51.680;5.134;2023-07-29T09:02:51;2.85;;;2.28;;
70545;SDS011;58098;51.680;5.134;2023-07-29T09:05:16;2.33;;;1.90;;
70545;SDS011;58098;51.680;5.134;2023-07-29T09:07:42;4.30;;;2.25;;
70545;SDS011;58098;51.680;5.134;2023-07-29T09:10:20;1.87;;;1.67;;
70545;SDS011;58098;51.680;5.134;2023-07-29T09:12:47;2.58;;;2.20;;
70545;SDS011;58098;51.680;5.134;2023-07-29T09:15:13;2.55;;;1.75;;
70545;SDS011;58098;51.680;5.134;2023-07-29T09:17:51;3.88;;;1.80;;
70545;SDS011;58098;51.680;5.134;2023-07-29T09:20:22;3.00;;;2.43;;
70545;SDS011;58098;51.680;5.134;2023-07-29T09:22:49;4.63;;;2.15;;
70545;SDS011;58098;51.680;5.134;2023-07-29T09:25:14;2.93;;;2.20;;
70545;SDS011;58098;51.680;5.134;2023-07-29T09:27:41;4.00;;;2.45;;
70545;SDS011;58098;51.680;5.134;2023-07-29T09:30:06;4.37;;;2.20;;
70545;SDS011;58098;51.680;5.134;2023-07-29T09:32:41;4.63;;;2.47;;
70545;SDS011;58098;51.680;5.134;2023-07-29T09:35:09;3.27;;;2.30;;
70545;SDS011;58098;51.680;5.134;2023-07-29T09:37:37;3.20;;;2.72;;
70545;SDS011;58098;51.680;5.134;2023-07-29T09:40:03;3.92;;;2.60;;
70545;SDS011;58098;51.680;5.134;2023-07-29T09:42:28;3.10;;;1.92;;
70545;SDS011;58098;51.680;5.134;2023-07-29T09:44:54;2.67;;;1.90;;
70545;SDS011;58098;51.680;5.134;2023-07-29T09:47:20;2.50;;;2.00;;
70545;SDS011;58098;51.680;5.134;2023-07-29T09:49:46;2.60;;;1.92;;
70545;SDS011;58098;51.680;5.134;2023-07-29T09:52:13;3.03;;;2.00;;
70545;SDS011;58098;51.680;5.134;2023-07-29T09:54:40;2.35;;;1.90;;
70545;SDS011;58098;51.680;5.134;2023-07-29T09:57:07;3.30;;;2.20;;
70545;SDS011;58098;51.680;5.134;2023-07-29T09:59:35;4.17;;;1.80;;
70545;SDS011;58098;51.680;5.134;2023-07-29T10:02:01;2.92;;;1.92;;
70545;SDS011;58098;51.680;5.134;2023-07-29T10:04:26;3.17;;;1.73;;
70545;SDS011;58098;51.680;5.134;2023-07-29T10:06:52;3.57;;;2.27;;
70545;SDS011;58098;51.680;5.134;2023-07-29T10:09:18;4.97;;;2.05;;
70545;SDS011;58098;51.680;5.134;2023-07-29T10:11:45;4.70;;;1.90;;
70545;SDS011;58098;51.680;5.134;2023-07-29T10:14:11;4.47;;;1.93;;
70545;SDS011;58098;51.680;5.134;2023-07-29T10:16:37;4.07;;;1.80;;
70545;SDS011;58098;51.680;5.134;2023-07-29T10:19:03;3.65;;;1.73;;
70545;SDS011;58098;51.680;5.134;2023-07-29T10:21:29;2.53;;;1.85;;
70545;SDS011;58098;51.680;5.134;2023-07-29T10:23:56;3.23;;;2.07;;
70545;SDS011;58098;51.680;5.134;2023-07-29T10:26:25;2.65;;;1.77;;
70545;SDS011;58098;51.680;5.134;2023-07-29T10:28:53;3.42;;;2.00;;
70545;SDS011;58098;51.680;5.134;2023-07-29T10:31:24;2.78;;;1.90;;
70545;SDS011;58098;51.680;5.134;2023-07-29T10:33:49;2.57;;;2.00;;
70545;SDS011;58098;51.680;5.134;2023-07-29T10:36:15;3.50;;;2.38;;
70545;SDS011;58098;51.680;5.134;2023-07-29T10:38:41;3.67;;;2.58;;
70545;SDS011;58098;51.680;5.134;2023-07-29T10:41:07;2.60;;;1.90;;
70545;SDS011;58098;51.680;5.134;2023-07-29T10:43:33;4.47;;;2.50;;
70545;SDS011;58098;51.680;5.134;2023-07-29T10:46:15;4.63;;;2.90;;
70545;SDS011;58098;51.680;5.134;2023-07-29T10:48:43;3.42;;;2.70;;
70545;SDS011;58098;51.680;5.134;2023-07-29T10:56:42;3.50;;;2.80;;
70545;SDS011;58098;51.680;5.134;2023-07-29T11:01:38;2.80;;;2.20;;
70545;SDS011;58098;51.680;5.134;2023-07-29T11:15:13;5.75;;;2.72;;
70545;SDS011;58098;51.680;5.134;2023-07-29T11:17:56;3.70;;;3.00;;
70545;SDS011;58098;51.680;5.134;2023-07-29T11:20:29;4.10;;;2.83;;
70545;SDS011;58098;51.680;5.134;2023-07-29T11:22:56;6.55;;;3.42;;
70545;SDS011;58098;51.680;5.134;2023-07-29T11:25:23;4.97;;;3.10;;
70545;SDS011;58098;51.680;5.134;2023-07-29T11:27:51;5.00;;;3.40;;
70545;SDS011;58098;51.680;5.134;2023-07-29T11:30:17;5.90;;;3.50;;
70545;SDS011;58098;51.680;5.134;2023-07-29T11:32:43;5.87;;;3.73;;
70545;SDS011;58098;51.680;5.134;2023-07-29T11:35:10;5.57;;;3.38;;
70545;SDS011;58098;51.680;5.134;2023-07-29T11:37:38;6.07;;;3.70;;
70545;SDS011;58098;51.680;5.134;2023-07-29T11:40:04;5.93;;;3.53;;
70545;SDS011;58098;51.680;5.134;2023-07-29T11:42:32;7.70;;;3.70;;
70545;SDS011;58098;51.680;5.134;2023-07-29T11:44:59;7.53;;;3.70;;
70545;SDS011;58098;51.680;5.134;2023-07-29T11:47:25;5.70;;;3.83;;
70545;SDS011;58098;51.680;5.134;2023-07-29T11:49:51;9.10;;;3.90;;
70545;SDS011;58098;51.680;5.134;2023-07-29T11:52:16;7.50;;;4.40;;
70545;SDS011;58098;51.680;5.134;2023-07-29T11:54:44;11.10;;;4.45;;
70545;SDS011;58098;51.680;5.134;2023-07-29T11:57:14;6.13;;;3.90;;
70545;SDS011;58098;51.680;5.134;2023-07-29T11:59:41;6.60;;;4.22;;
70545;SDS011;58098;51.680;5.134;2023-07-29T12:02:11;6.27;;;4.57;;
70545;SDS011;58098;51.680;5.134;2023-07-29T12:04:41;6.55;;;4.10;;
70545;SDS011;58098;51.680;5.134;2023-07-29T12:07:08;7.70;;;3.90;;
70545;SDS011;58098;51.680;5.134;2023-07-29T12:09:34;7.20;;;3.77;;
70545;SDS011;58098;51.680;5.134;2023-07-29T12:12:04;4.90;;;3.33;;
70545;SDS011;58098;51.680;5.134;2023-07-29T12:14:30;3.92;;;3.42;;
70545;SDS011;58098;51.680;5.134;2023-07-29T12:16:56;5.55;;;3.75;;
70545;SDS011;58098;51.680;5.134;2023-07-29T12:19:30;3.60;;;3.30;;
70545;SDS011;58098;51.680;5.134;2023-07-29T12:21:57;4.80;;;2.90;;
70545;SDS011;58098;51.680;5.134;2023-07-29T12:24:22;4.60;;;3.03;;
70545;SDS011;58098;51.680;5.134;2023-07-29T12:26:48;3.95;;;3.00;;
70545;SDS011;58098;51.680;5.134;2023-07-29T12:31:39;4.13;;;2.53;;
70545;SDS011;58098;51.680;5.134;2023-07-29T12:34:05;4.40;;;2.80;;
70545;SDS011;58098;51.680;5.134;2023-07-29T12:36:41;3.47;;;2.88;;
70545;SDS011;58098;51.680;5.134;2023-07-29T12:41:57;4.50;;;3.47;;
70545;SDS011;58098;51.680;5.134;2023-07-29T12:44:25;4.38;;;3.53;;
70545;SDS011;58098;51.680;5.134;2023-07-29T12:46:55;5.45;;;3.60;;
70545;SDS011;58098;51.680;5.134;2023-07-29T12:49:20;6.20;;;4.23;;
70545;SDS011;58098;51.680;5.134;2023-07-29T12:51:47;4.40;;;3.60;;
70545;SDS011;58098;51.680;5.134;2023-07-29T12:54:12;4.10;;;3.43;;
70545;SDS011;58098;51.680;5.134;2023-07-29T12:56:38;4.30;;;3.90;;
70545;SDS011;58098;51.680;5.134;2023-07-29T12:59:04;4.53;;;3.57;;
70545;SDS011;58098;51.680;5.134;2023-07-29T13:01:30;3.83;;;2.92;;
70545;SDS011;58098;51.680;5.134;2023-07-29T13:03:55;4.00;;;2.83;;
70545;SDS011;58098;51.680;5.134;2023-07-29T13:06:21;3.47;;;3.17;;
70545;SDS011;58098;51.680;5.134;2023-07-29T13:08:47;4.63;;;3.33;;
70545;SDS011;58098;51.680;5.134;2023-07-29T13:11:13;3.87;;;2.63;;
70545;SDS011;58098;51.680;5.134;2023-07-29T13:13:38;2.83;;;2.53;;
70545;SDS011;58098;51.680;5.134;2023-07-29T13:16:04;4.40;;;2.50;;
70545;SDS011;58098;51.680;5.134;2023-07-29T13:18:30;2.47;;;1.80;;
70545;SDS011;58098;51.680;5.134;2023-07-29T13:20:56;3.47;;;2.60;;
70545;SDS011;58098;51.680;5.134;2023-07-29T13:23:22;4.00;;;2.20;;
70545;SDS011;58098;51.680;5.134;2023-07-29T13:25:47;3.20;;;2.50;;
70545;SDS011;58098;51.680;5.134;2023-07-29T13:28:13;2.77;;;2.50;;
70545;SDS011;58098;51.680;5.134;2023-07-29T13:30:39;4.57;;;2.45;;
70545;SDS011;58098;51.680;5.134;2023-07-29T13:33:06;3.78;;;2.40;;
70545;SDS011;58098;51.680;5.134;2023-07-29T13:35:31;2.53;;;2.20;;
70545;SDS011;58098;51.680;5.134;2023-07-29T13:37:57;3.63;;;2.27;;
70545;SDS011;58098;51.680;5.134;2023-07-29T13:40:22;4.87;;;2.17;;
70545;SDS011;58098;51.680;5.134;2023-07-29T13:42:47;2.43;;;2.20;;
70545;SDS011;58098;51.680;5.134;2023-07-29T13:45:13;2.20;;;2.00;;
70545;SDS011;58098;51.680;5.134;2023-07-29T13:47:38;3.10;;;2.67;;
70545;SDS011;58098;51.680;5.134;2023-07-29T13:50:03;3.30;;;2.10;;
70545;SDS011;58098;51.680;5.134;2023-07-29T13:52:29;3.90;;;2.05;;
70545;SDS011;58098;51.680;5.134;2023-07-29T13:54:55;2.87;;;2.00;;
70545;SDS011;58098;51.680;5.134;2023-07-29T13:57:20;3.70;;;2.20;;
70545;SDS011;58098;51.680;5.134;2023-07-29T13:59:45;3.77;;;2.10;;
70545;SDS011;58098;51.680;5.134;2023-07-29T14:02:11;2.10;;;1.90;;
70545;SDS011;58098;51.680;5.134;2023-07-29T14:04:36;2.17;;;1.87;;
70545;SDS011;58098;51.680;5.134;2023-07-29T14:07:01;3.10;;;1.93;;
70545;SDS011;58098;51.680;5.134;2023-07-29T14:09:27;2.40;;;2.20;;
70545;SDS011;58098;51.680;5.134;2023-07-29T14:11:53;3.57;;;1.97;;
70545;SDS011;58098;51.680;5.134;2023-07-29T14:14:19;2.55;;;2.00;;
70545;SDS011;58098;51.680;5.134;2023-07-29T14:16:44;3.70;;;1.80;;
70545;SDS011;58098;51.680;5.134;2023-07-29T14:19:10;3.67;;;2.00;;
70545;SDS011;58098;51.680;5.134;2023-07-29T14:21:35;2.55;;;2.35;;
70545;SDS011;58098;51.680;5.134;2023-07-29T14:24:00;2.47;;;2.10;;
70545;SDS011;58098;51.680;5.134;2023-07-29T14:26:26;3.17;;;2.43;;
70545;SDS011;58098;51.680;5.134;2023-07-29T14:28:51;3.60;;;2.47;;
70545;SDS011;58098;51.680;5.134;2023-07-29T14:31:16;4.97;;;2.63;;
70545;SDS011;58098;51.680;5.134;2023-07-29T14:33:42;3.25;;;2.08;;
70545;SDS011;58098;51.680;5.134;2023-07-29T14:36:08;2.88;;;2.25;;
70545;SDS011;58098;51.680;5.134;2023-07-29T14:38:34;2.50;;;2.30;;
70545;SDS011;58098;51.680;5.134;2023-07-29T14:41:00;3.20;;;2.58;;
70545;SDS011;58098;51.680;5.134;2023-07-29T14:43:26;2.70;;;2.50;;
70545;SDS011;58098;51.680;5.134;2023-07-29T14:45:51;2.67;;;2.23;;
70545;SDS011;58098;51.680;5.134;2023-07-29T14:48:16;3.90;;;2.57;;
70545;SDS011;58098;51.680;5.134;2023-07-29T14:50:42;3.13;;;2.53;;
70545;SDS011;58098;51.680;5.134;2023-07-29T14:53:08;4.82;;;3.00;;
70545;SDS011;58098;51.680;5.134;2023-07-29T14:55:34;3.97;;;2.83;;
70545;SDS011;58098;51.680;5.134;2023-07-29T14:57:59;4.67;;;2.43;;
70545;SDS011;58098;51.680;5.134;2023-07-29T15:00:25;3.70;;;2.80;;
70545;SDS011;58098;51.680;5.134;2023-07-29T15:02:50;4.27;;;2.47;;
70545;SDS011;58098;51.680;5.134;2023-07-29T15:05:16;3.40;;;2.63;;
70545;SDS011;58098;51.680;5.134;2023-07-29T15:07:41;3.20;;;2.77;;
70545;SDS011;58098;51.680;5.134;2023-07-29T15:10:06;3.73;;;3.10;;
70545;SDS011;58098;51.680;5.134;2023-07-29T15:12:32;3.43;;;2.87;;
70545;SDS011;58098;51.680;5.134;2023-07-29T15:14:57;3.50;;;3.20;;